Time,TemperatureF,DewpointF,PressureIn,WindDirection,WindDirectionDegrees,WindSpeedMPH,WindSpeedGustMPH,Humidity,HourlyPrecipIn,Conditions,Clouds,dailyrainin,SolarRadiationWatts/m^2,SoftwareType,DateUTC
2013-08-05 00:05:00,56.3,52.2,30.01,SSW,207,2.0,3.0,86,0.00,,,0.00,0001,Weather View 32 v70,2013-08-05 07:05:00,
2013-08-05 00:15:00,56.1,52.3,30.01,South,184,0.0,3.0,87,0.00,,,0.00,0001,Weather View 32 v70,2013-08-05 07:15:00,
2013-08-05 00:20:00,56.1,52.3,30.01,SE,139,1.0,3.0,87,0.00,,,0.00,0001,Weather View 32 v70,2013-08-05 07:20:00,
2013-08-05 00:25:00,56.2,52.4,30.01,SE,139,0.0,3.0,87,0.00,,,0.00,0002,Weather View 32 v70,2013-08-05 07:25:00,
2013-08-05 00:30:00,56.3,52.5,30.01,South,184,0.0,3.0,87,0.00,,,0.00,0001,Weather View 32 v70,2013-08-05 07:30:00,
2013-08-05 00:40:00,56.3,52.5,30.01,SSE,162,0.0,3.0,87,0.00,,,0.00,0001,Weather View 32 v70,2013-08-05 07:40:00,
2013-08-05 00:45:00,56.4,52.6,30.01,SSE,162,0.0,3.0,87,0.00,,,0.00,0001,Weather View 32 v70,2013-08-05 07:45:00,
2013-08-05 00:50:00,56.4,52.6,30.01,WSW,252,0.0,3.0,87,0.00,,,0.00,0001,Weather View 32 v70,2013-08-05 07:50:00,
2013-08-05 00:55:00,56.5,52.7,30.01,SSW,207,0.0,3.0,87,0.00,,,0.00,0002,Weather View 32 v70,2013-08-05 07:55:00,
2013-08-05 01:05:00,56.8,53.0,30.01,SSW,207,0.0,3.0,87,0.00,,,0.00,0001,Weather View 32 v70,2013-08-05 08:05:00,
2013-08-05 01:10:00,56.8,53.0,30.01,SE,139,0.0,3.0,87,0.00,,,0.00,0001,Weather View 32 v70,2013-08-05 08:10:00,
2013-08-05 01:15:00,56.8,53.0,30.01,ESE,117,0.0,1.0,87,0.00,,,0.00,0002,Weather View 32 v70,2013-08-05 08:15:00,
2013-08-05 01:20:00,56.7,52.9,30.01,ESE,117,0.0,1.0,87,0.00,,,0.00,0002,Weather View 32 v70,2013-08-05 08:20:00,
2013-08-05 01:25:00,56.7,52.9,30.01,ESE,117,0.0,1.0,87,0.00,,,0.00,0002,Weather View 32 v70,2013-08-05 08:25:00,
2013-08-05 01:34:00,56.7,52.9,30.01,SSE,162,0.0,1.0,87,0.00,,,0.00,0002,Weather View 32 v70,2013-08-05 08:34:00,
2013-08-05 01:39:00,56.7,52.9,30.00,South,184,1.0,1.0,87,0.00,,,0.00,0002,Weather View 32 v70,2013-08-05 08:39:00,
2013-08-05 01:45:00,56.6,52.8,30.00,South,184,0.0,2.0,87,0.00,,,0.00,0002,Weather View 32 v70,2013-08-05 08:45:00,
2013-08-05 01:50:00,56.6,52.8,30.00,South,184,0.0,2.0,87,0.00,,,0.00,0002,Weather View 32 v70,2013-08-05 08:50:00,
2013-08-05 02:00:00,56.5,52.7,30.00,SE,139,0.0,2.0,87,0.00,,,0.00,0002,Weather View 32 v70,2013-08-05 09:00:00,
2013-08-05 02:09:00,56.6,52.8,30.00,SSE,162,0.0,2.0,87,0.00,,,0.00,0001,Weather View 32 v70,2013-08-05 09:09:00,
2013-08-05 02:14:00,56.6,52.8,30.00,South,184,0.0,2.0,87,0.00,,,0.00,0002,Weather View 32 v70,2013-08-05 09:14:00,
2013-08-05 02:25:00,56.7,52.9,30.00,South,184,0.0,2.0,87,0.00,,,0.00,0002,Weather View 32 v70,2013-08-05 09:25:00,
2013-08-05 02:29:00,56.6,52.8,30.00,SSE,162,0.0,2.0,87,0.00,,,0.00,0002,Weather View 32 v70,2013-08-05 09:29:00,
2013-08-05 02:35:00,56.6,52.8,30.00,SSE,162,0.0,2.0,87,0.00,,,0.00,0002,Weather View 32 v70,2013-08-05 09:35:00,
2013-08-05 02:39:00,56.5,52.7,30.00,SE,139,0.0,2.0,87,0.00,,,0.00,0002,Weather View 32 v70,2013-08-05 09:39:00,
2013-08-05 02:44:00,56.5,53.0,30.00,SSE,162,0.0,1.0,88,0.00,,,0.00,0002,Weather View 32 v70,2013-08-05 09:44:00,
2013-08-05 02:55:00,56.3,52.8,30.00,SSW,207,0.0,1.0,88,0.00,,,0.00,0002,Weather View 32 v70,2013-08-05 09:55:00,
2013-08-05 03:00:00,56.3,52.8,30.00,South,184,0.0,1.0,88,0.00,,,0.00,0001,Weather View 32 v70,2013-08-05 10:00:00,
2013-08-05 03:04:00,56.3,52.8,30.00,South,184,0.0,1.0,88,0.00,,,0.00,0002,Weather View 32 v70,2013-08-05 10:04:00,
2013-08-05 03:10:00,56.3,52.8,30.00,South,184,0.0,0.0,88,0.00,,,0.00,0002,Weather View 32 v70,2013-08-05 10:10:00,
2013-08-05 03:14:00,56.3,52.8,30.00,South,184,0.0,0.0,88,0.00,,,0.00,0002,Weather View 32 v70,2013-08-05 10:14:00,
2013-08-05 03:24:00,56.4,52.9,30.00,South,184,0.0,0.0,88,0.00,,,0.00,0002,Weather View 32 v70,2013-08-05 10:24:00,
2013-08-05 03:30:00,56.5,53.0,30.00,ESE,117,0.0,0.0,88,0.00,,,0.00,0002,Weather View 32 v70,2013-08-05 10:30:00,
2013-08-05 03:35:00,56.5,53.0,30.00,SE,139,0.0,0.0,88,0.00,,,0.00,0002,Weather View 32 v70,2013-08-05 10:35:00,
2013-08-05 03:45:00,56.6,53.1,30.00,SSE,162,0.0,2.0,88,0.00,,,0.00,0002,Weather View 32 v70,2013-08-05 10:45:00,
2013-08-05 03:50:00,56.6,53.1,30.00,ESE,117,1.0,2.0,88,0.00,,,0.00,0002,Weather View 32 v70,2013-08-05 10:50:00,
2013-08-05 04:04:00,56.6,53.1,29.99,SE,139,0.0,2.0,88,0.00,,,0.00,0002,Weather View 32 v70,2013-08-05 11:04:00,
2013-08-05 04:15:00,56.5,53.3,29.99,SSW,207,0.0,2.0,89,0.00,,,0.00,0002,Weather View 32 v70,2013-08-05 11:15:00,
2013-08-05 04:20:00,56.5,53.3,29.99,East,94,0.0,2.0,89,0.00,,,0.00,0001,Weather View 32 v70,2013-08-05 11:20:00,
2013-08-05 04:25:00,56.5,53.3,29.99,SSE,162,0.0,2.0,89,0.00,,,0.00,0001,Weather View 32 v70,2013-08-05 11:25:00,
2013-08-05 04:30:00,56.6,53.4,30.00,ESE,117,0.0,2.0,89,0.00,,,0.00,0001,Weather View 32 v70,2013-08-05 11:30:00,
2013-08-05 04:35:00,56.7,53.5,30.00,East,94,0.0,2.0,89,0.00,,,0.00,0002,Weather View 32 v70,2013-08-05 11:35:00,
2013-08-05 04:45:00,56.7,53.5,30.00,ESE,117,0.0,2.0,89,0.00,,,0.00,0001,Weather View 32 v70,2013-08-05 11:45:00,
2013-08-05 04:49:00,56.8,53.6,30.00,ESE,117,0.0,2.0,89,0.00,,,0.00,0001,Weather View 32 v70,2013-08-05 11:49:00,
2013-08-05 04:55:00,56.9,53.7,30.00,SSE,162,1.0,3.0,89,0.00,,,0.00,0002,Weather View 32 v70,2013-08-05 11:55:00,
2013-08-05 05:00:00,56.9,53.7,30.00,SW,229,3.0,6.0,89,0.00,,,0.00,0002,Weather View 32 v70,2013-08-05 12:00:00,
2013-08-05 05:09:00,57.0,53.8,30.00,NW,319,1.0,6.0,89,0.00,,,0.00,0001,Weather View 32 v70,2013-08-05 12:09:00,
2013-08-05 05:15:00,57.1,53.9,30.00,West,274,2.0,6.0,89,0.00,,,0.00,0001,Weather View 32 v70,2013-08-05 12:15:00,
2013-08-05 05:20:00,57.1,53.9,30.00,WNW,297,0.0,6.0,89,0.00,,,0.00,0001,Weather View 32 v70,2013-08-05 12:20:00,
2013-08-05 05:30:00,57.0,53.8,30.00,South,184,1.0,6.0,89,0.00,,,0.00,0001,Weather View 32 v70,2013-08-05 12:30:00,
2013-08-05 05:39:00,56.8,53.6,30.00,WSW,252,0.0,6.0,89,0.00,,,0.00,0001,Weather View 32 v70,2013-08-05 12:39:00,
2013-08-05 05:44:00,56.8,53.6,30.01,SSW,207,2.0,6.0,89,0.00,,,0.00,0002,Weather View 32 v70,2013-08-05 12:44:00,
2013-08-05 05:50:00,56.7,53.5,30.01,WSW,252,1.0,6.0,89,0.00,,,0.00,0002,Weather View 32 v70,2013-08-05 12:50:00,
2013-08-05 05:54:00,56.6,53.4,30.00,SE,139,0.0,6.0,89,0.00,,,0.00,0002,Weather View 32 v70,2013-08-05 12:54:00,
2013-08-05 06:05:00,56.5,53.3,30.01,SSW,207,4.0,6.0,89,0.00,,,0.00,0002,Weather View 32 v70,2013-08-05 13:05:00,
2013-08-05 06:10:00,56.2,53.3,30.01,SSW,207,4.0,7.0,90,0.00,,,0.00,0003,Weather View 32 v70,2013-08-05 13:10:00,
2013-08-05 06:15:00,56.2,53.3,30.01,South,184,3.0,7.0,90,0.00,,,0.00,0003,Weather View 32 v70,2013-08-05 13:15:00,
2013-08-05 06:20:00,56.2,53.3,30.01,WSW,252,4.0,7.0,90,0.00,,,0.00,0004,Weather View 32 v70,2013-08-05 13:20:00,
2013-08-05 06:30:00,56.4,53.5,30.01,WSW,252,3.0,7.0,90,0.00,,,0.00,0007,Weather View 32 v70,2013-08-05 13:30:00,
2013-08-05 06:40:00,56.3,53.1,30.01,SW,229,3.0,7.0,89,0.00,,,0.00,0014,Weather View 32 v70,2013-08-05 13:40:00,
2013-08-05 06:50:00,56.3,53.1,30.02,West,274,2.0,7.0,89,0.00,,,0.00,0020,Weather View 32 v70,2013-08-05 13:50:00,
2013-08-05 07:05:00,56.4,53.2,30.02,NW,319,2.0,7.0,89,0.00,,,0.00,0036,Weather View 32 v70,2013-08-05 14:05:00,
2013-08-05 07:15:00,56.3,53.1,30.03,WNW,297,2.0,6.0,89,0.00,,,0.00,0044,Weather View 32 v70,2013-08-05 14:15:00,
2013-08-05 07:20:00,56.5,53.3,30.02,WSW,252,0.0,6.0,89,0.00,,,0.00,0053,Weather View 32 v70,2013-08-05 14:20:00,
2013-08-05 07:30:00,56.6,53.4,30.02,SSE,162,0.0,6.0,89,0.00,,,0.00,0060,Weather View 32 v70,2013-08-05 14:30:00,
2013-08-05 07:35:00,56.5,53.3,30.03,South,184,4.0,6.0,89,0.00,,,0.00,0066,Weather View 32 v70,2013-08-05 14:35:00,
2013-08-05 07:39:00,56.5,53.0,30.03,SSW,207,1.0,5.0,88,0.00,,,0.00,0081,Weather View 32 v70,2013-08-05 14:39:00,
2013-08-05 07:45:00,56.7,53.2,30.02,NNW,342,1.0,5.0,88,0.00,,,0.00,0112,Weather View 32 v70,2013-08-05 14:45:00,
2013-08-05 07:55:00,57.0,53.5,30.03,East,94,1.0,5.0,88,0.00,,,0.00,0149,Weather View 32 v70,2013-08-05 14:55:00,
2013-08-05 07:59:00,57.3,53.8,30.03,NE,49,0.0,5.0,88,0.00,,,0.00,0144,Weather View 32 v70,2013-08-05 14:59:00,
2013-08-05 08:05:00,57.5,53.7,30.02,West,274,2.0,5.0,87,0.00,,,0.00,0143,Weather View 32 v70,2013-08-05 15:05:00,
2013-08-05 08:09:00,57.7,53.8,30.03,NNW,342,1.0,5.0,87,0.00,,,0.00,0151,Weather View 32 v70,2013-08-05 15:09:00,
2013-08-05 08:20:00,57.6,53.4,30.03,NNW,342,1.0,7.0,86,0.00,,,0.00,0157,Weather View 32 v70,2013-08-05 15:20:00,
2013-08-05 08:30:00,58.1,53.9,30.02,NNW,342,2.0,7.0,86,0.00,,,0.00,0198,Weather View 32 v70,2013-08-05 15:30:00,
2013-08-05 08:34:00,58.6,54.1,30.02,ESE,117,1.0,7.0,85,0.00,,,0.00,0284,Weather View 32 v70,2013-08-05 15:34:00,
2013-08-05 08:45:00,58.6,53.4,30.03,SSE,162,3.0,7.0,83,0.00,,,0.00,0194,Weather View 32 v70,2013-08-05 15:45:00,
2013-08-05 08:50:00,59.0,53.8,30.02,WSW,252,4.0,7.0,83,0.00,,,0.00,0243,Weather View 32 v70,2013-08-05 15:50:00,
2013-08-05 08:55:00,59.5,54.0,30.03,SSW,207,5.0,7.0,82,0.00,,,0.00,0613,Weather View 32 v70,2013-08-05 15:55:00,
2013-08-05 09:04:00,59.6,53.4,30.03,WSW,252,4.0,9.0,80,0.00,,,0.00,0252,Weather View 32 v70,2013-08-05 16:04:00,
2013-08-05 09:20:00,61.8,54.5,30.02,NW,319,3.0,10.0,77,0.00,,,0.00,0531,Weather View 32 v70,2013-08-05 16:20:00,
2013-08-05 09:25:00,62.1,54.1,30.02,WNW,297,3.0,10.0,75,0.00,,,0.00,0528,Weather View 32 v70,2013-08-05 16:25:00,
2013-08-05 09:29:00,62.2,53.8,30.03,SSW,207,6.0,10.0,74,0.00,,,0.00,0524,Weather View 32 v70,2013-08-05 16:29:00,
2013-08-05 09:39:00,62.6,54.2,30.02,East,94,3.0,10.0,74,0.00,,,0.00,0547,Weather View 32 v70,2013-08-05 16:39:00,
2013-08-05 09:50:00,64.0,54.8,30.02,NNE,27,1.0,10.0,72,0.00,,,0.00,0573,Weather View 32 v70,2013-08-05 16:50:00,
2013-08-05 09:55:00,63.7,54.1,30.02,SE,139,6.0,10.0,71,0.00,,,0.00,0580,Weather View 32 v70,2013-08-05 16:55:00,
2013-08-05 10:00:00,63.3,53.7,30.02,ESE,117,6.0,10.0,71,0.00,,,0.00,0594,Weather View 32 v70,2013-08-05 17:00:00,
2013-08-05 10:05:00,63.1,53.9,30.02,SSE,162,2.0,10.0,72,0.00,,,0.00,0608,Weather View 32 v70,2013-08-05 17:05:00,
2013-08-05 10:15:00,63.7,54.5,30.02,ESE,117,6.0,10.0,72,0.00,,,0.00,0622,Weather View 32 v70,2013-08-05 17:15:00,
2013-08-05 10:19:00,64.3,55.1,30.02,NE,49,6.0,10.0,72,0.00,,,0.00,0640,Weather View 32 v70,2013-08-05 17:19:00,
2013-08-05 10:25:00,64.8,54.8,30.02,SE,139,6.0,10.0,70,0.00,,,0.00,0652,Weather View 32 v70,2013-08-05 17:25:00,
2013-08-05 10:30:00,65.8,55.3,30.02,SE,139,4.0,10.0,69,0.00,,,0.00,0661,Weather View 32 v70,2013-08-05 17:30:00,
2013-08-05 10:45:00,65.8,54.9,30.02,South,184,6.0,10.0,68,0.00,,,0.00,0690,Weather View 32 v70,2013-08-05 17:45:00,
2013-08-05 10:50:00,66.7,55.4,30.02,ESE,117,6.0,10.0,67,0.00,,,0.00,0701,Weather View 32 v70,2013-08-05 17:50:00,
2013-08-05 10:54:00,66.3,54.6,30.02,NE,49,4.0,10.0,66,0.00,,,0.00,0712,Weather View 32 v70,2013-08-05 17:54:00,
2013-08-05 11:00:00,66.8,55.0,30.02,ESE,117,2.0,10.0,66,0.00,,,0.00,0716,Weather View 32 v70,2013-08-05 18:00:00,
2013-08-05 11:10:00,66.9,54.7,30.02,NE,49,4.0,10.0,65,0.00,,,0.00,0733,Weather View 32 v70,2013-08-05 18:10:00,
2013-08-05 11:15:00,67.2,55.0,30.01,ENE,72,5.0,10.0,65,0.00,,,0.00,0739,Weather View 32 v70,2013-08-05 18:15:00,
2013-08-05 11:35:00,68.3,55.2,30.01,NE,49,2.0,10.0,63,0.00,,,0.00,0760,Weather View 32 v70,2013-08-05 18:35:00,
2013-08-05 11:40:00,68.8,55.7,30.01,NW,319,3.0,10.0,63,0.00,,,0.00,0766,Weather View 32 v70,2013-08-05 18:40:00,
2013-08-05 11:45:00,69.5,55.9,30.01,NNW,342,6.0,10.0,62,0.00,,,0.00,0770,Weather View 32 v70,2013-08-05 18:45:00,
2013-08-05 11:55:00,69.3,55.2,30.01,NNW,342,6.0,10.0,61,0.00,,,0.00,0774,Weather View 32 v70,2013-08-05 18:55:00,
2013-08-05 12:00:00,69.3,54.8,30.00,NW,319,4.0,9.0,60,0.00,,,0.00,0780,Weather View 32 v70,2013-08-05 19:00:00,
2013-08-05 12:10:00,69.9,55.3,30.00,ENE,72,1.0,9.0,60,0.00,,,0.00,0787,Weather View 32 v70,2013-08-05 19:10:00,
2013-08-05 12:15:00,71.2,56.1,30.00,NNW,342,6.0,9.0,59,0.00,,,0.00,0792,Weather View 32 v70,2013-08-05 19:15:00,
2013-08-05 12:20:00,71.1,54.6,30.00,NE,49,3.0,9.0,56,0.00,,,0.00,0794,Weather View 32 v70,2013-08-05 19:20:00,
2013-08-05 12:25:00,70.9,54.4,30.00,NNW,342,4.0,9.0,56,0.00,,,0.00,0798,Weather View 32 v70,2013-08-05 19:25:00,
2013-08-05 12:30:00,71.5,55.4,30.00,WNW,297,4.0,9.0,57,0.00,,,0.00,0801,Weather View 32 v70,2013-08-05 19:30:00,
2013-08-05 12:40:00,71.9,55.3,30.00,SE,139,1.0,9.0,56,0.00,,,0.00,0810,Weather View 32 v70,2013-08-05 19:40:00,
2013-08-05 12:45:00,73.1,55.9,30.00,ESE,117,1.0,9.0,55,0.00,,,0.00,0815,Weather View 32 v70,2013-08-05 19:45:00,
2013-08-05 12:50:00,73.2,55.0,29.99,NNW,342,3.0,9.0,53,0.00,,,0.00,0815,Weather View 32 v70,2013-08-05 19:50:00,
2013-08-05 12:55:00,73.4,55.2,29.99,ENE,72,3.0,9.0,53,0.00,,,0.00,0818,Weather View 32 v70,2013-08-05 19:55:00,
2013-08-05 13:00:00,73.4,54.7,29.99,SSE,162,1.0,8.0,52,0.00,,,0.00,0822,Weather View 32 v70,2013-08-05 20:00:00,
2013-08-05 13:10:00,73.9,54.6,29.98,ESE,117,1.0,9.0,51,0.00,,,0.00,0823,Weather View 32 v70,2013-08-05 20:10:00,
2013-08-05 13:15:00,74.8,54.9,29.98,NE,49,1.0,9.0,50,0.00,,,0.00,0825,Weather View 32 v70,2013-08-05 20:15:00,
2013-08-05 13:20:00,74.3,53.8,29.98,North,4,6.0,9.0,49,0.00,,,0.00,0825,Weather View 32 v70,2013-08-05 20:20:00,
2013-08-05 13:25:00,74.7,54.8,29.98,ESE,117,0.0,9.0,50,0.00,,,0.00,0826,Weather View 32 v70,2013-08-05 20:25:00,
2013-08-05 13:35:00,76.1,54.9,29.98,NNE,27,3.0,9.0,48,0.00,,,0.00,0824,Weather View 32 v70,2013-08-05 20:35:00,
2013-08-05 13:40:00,76.5,54.1,29.98,NNE,27,4.0,9.0,46,0.00,,,0.00,0823,Weather View 32 v70,2013-08-05 20:40:00,
2013-08-05 13:45:00,76.7,54.3,29.97,NE,49,3.0,9.0,46,0.00,,,0.00,0820,Weather View 32 v70,2013-08-05 20:45:00,
2013-08-05 13:50:00,77.7,55.2,29.97,NE,49,5.0,9.0,46,0.00,,,0.00,0817,Weather View 32 v70,2013-08-05 20:50:00,
2013-08-05 13:55:00,77.8,54.1,29.97,NE,49,5.0,10.0,44,0.00,,,0.00,0814,Weather View 32 v70,2013-08-05 20:55:00,
2013-08-05 14:05:00,78.2,55.0,29.97,NNE,27,3.0,10.0,45,0.00,,,0.00,0803,Weather View 32 v70,2013-08-05 21:05:00,
2013-08-05 14:10:00,78.3,54.5,29.97,SSW,207,2.0,10.0,44,0.00,,,0.00,0802,Weather View 32 v70,2013-08-05 21:10:00,
2013-08-05 14:20:00,79.3,54.8,29.96,SE,139,4.0,10.0,43,0.00,,,0.00,0790,Weather View 32 v70,2013-08-05 21:20:00,
2013-08-05 14:30:00,80.0,52.7,29.96,SW,229,7.0,13.0,39,0.00,,,0.00,0775,Weather View 32 v70,2013-08-05 21:30:00,
2013-08-05 14:35:00,79.9,52.6,29.96,SSW,207,7.0,13.0,39,0.00,,,0.00,0768,Weather View 32 v70,2013-08-05 21:35:00,
2013-08-05 14:40:00,79.7,52.5,29.96,SSW,207,7.0,13.0,39,0.00,,,0.00,0763,Weather View 32 v70,2013-08-05 21:40:00,
2013-08-05 14:45:00,79.6,52.4,29.96,SSW,207,3.0,13.0,39,0.00,,,0.00,0756,Weather View 32 v70,2013-08-05 21:45:00,
2013-08-05 14:50:00,80.4,53.8,29.96,WSW,252,7.0,13.0,40,0.00,,,0.00,0747,Weather View 32 v70,2013-08-05 21:50:00,
2013-08-05 15:05:00,78.6,53.5,29.95,West,274,6.0,14.0,42,0.00,,,0.00,0731,Weather View 32 v70,2013-08-05 22:05:00,
2013-08-05 15:20:00,78.7,53.6,29.95,SSW,207,11.0,14.0,42,0.00,,,0.00,0707,Weather View 32 v70,2013-08-05 22:20:00,
2013-08-05 15:30:00,78.6,54.2,29.95,West,274,9.0,14.0,43,0.00,,,0.00,0693,Weather View 32 v70,2013-08-05 22:30:00,
2013-08-05 15:35:00,78.6,53.5,29.95,SSW,207,6.0,14.0,42,0.00,,,0.00,0689,Weather View 32 v70,2013-08-05 22:35:00,
2013-08-05 15:40:00,78.3,53.2,29.95,WSW,252,13.0,16.0,42,0.00,,,0.00,0682,Weather View 32 v70,2013-08-05 22:40:00,
2013-08-05 15:45:00,78.4,53.3,29.95,WSW,252,6.0,16.0,42,0.00,,,0.00,0675,Weather View 32 v70,2013-08-05 22:45:00,
2013-08-05 15:50:00,77.7,53.3,29.94,South,184,9.0,16.0,43,0.00,,,0.00,0669,Weather View 32 v70,2013-08-05 22:50:00,
2013-08-05 16:00:00,77.8,53.4,29.94,NW,319,5.0,16.0,43,0.00,,,0.00,0655,Weather View 32 v70,2013-08-05 23:00:00,
2013-08-05 16:10:00,77.6,53.3,29.94,SW,229,6.0,16.0,43,0.00,,,0.00,0639,Weather View 32 v70,2013-08-05 23:10:00,
2013-08-05 16:15:00,77.8,53.4,29.94,SW,229,4.0,16.0,43,0.00,,,0.00,0632,Weather View 32 v70,2013-08-05 23:15:00,
2013-08-05 16:20:00,77.9,53.5,29.93,NW,319,5.0,16.0,43,0.00,,,0.00,0623,Weather View 32 v70,2013-08-05 23:20:00,
2013-08-05 16:30:00,77.1,52.8,29.94,SW,229,9.0,16.0,43,0.00,,,0.00,0601,Weather View 32 v70,2013-08-05 23:30:00,
2013-08-05 16:35:00,77.0,53.3,29.93,WNW,297,6.0,16.0,44,0.00,,,0.00,0589,Weather View 32 v70,2013-08-05 23:35:00,
2013-08-05 16:40:00,76.7,53.1,29.93,SSW,207,6.0,16.0,44,0.00,,,0.00,0576,Weather View 32 v70,2013-08-05 23:40:00,
2013-08-05 16:50:00,76.4,52.8,29.93,East,94,1.0,17.0,44,0.00,,,0.00,0549,Weather View 32 v70,2013-08-05 23:50:00,
2013-08-05 17:00:00,75.9,51.7,29.93,WSW,252,12.0,17.0,43,0.00,,,0.00,0523,Weather View 32 v70,2013-08-06 00:00:00,
2013-08-05 17:05:00,75.5,52.6,29.93,North,4,4.0,17.0,45,0.00,,,0.00,0508,Weather View 32 v70,2013-08-06 00:05:00,
2013-08-05 17:15:00,74.3,52.1,29.93,North,4,4.0,17.0,46,0.00,,,0.00,0485,Weather View 32 v70,2013-08-06 00:15:00,
2013-08-05 17:25:00,75.1,52.8,29.93,NNE,27,3.0,17.0,46,0.00,,,0.00,0460,Weather View 32 v70,2013-08-06 00:25:00,
2013-08-05 17:35:00,73.9,52.3,29.93,NNE,27,3.0,17.0,47,0.00,,,0.00,0436,Weather View 32 v70,2013-08-06 00:35:00,
2013-08-05 17:40:00,73.1,52.2,29.93,NW,319,3.0,17.0,48,0.00,,,0.00,0423,Weather View 32 v70,2013-08-06 00:40:00,
2013-08-05 17:45:00,73.3,52.4,29.93,NNW,342,7.0,17.0,48,0.00,,,0.00,0412,Weather View 32 v70,2013-08-06 00:45:00,
2013-08-05 17:55:00,72.8,51.9,29.93,WSW,252,6.0,14.0,48,0.00,,,0.00,0390,Weather View 32 v70,2013-08-06 00:55:00,
2013-08-05 18:00:00,72.7,51.8,29.93,SE,139,5.0,14.0,48,0.00,,,0.00,0377,Weather View 32 v70,2013-08-06 01:00:00,
2013-08-05 18:10:00,72.5,51.6,29.93,West,274,6.0,13.0,48,0.00,,,0.00,0353,Weather View 32 v70,2013-08-06 01:10:00,
2013-08-05 18:15:00,72.3,52.0,29.93,NW,319,4.0,12.0,49,0.00,,,0.00,0341,Weather View 32 v70,2013-08-06 01:15:00,
2013-08-05 18:20:00,72.0,51.2,29.93,West,274,6.0,14.0,48,0.00,,,0.00,0328,Weather View 32 v70,2013-08-06 01:20:00,
2013-08-05 18:25:00,72.0,51.7,29.94,NW,319,5.0,14.0,49,0.00,,,0.00,0316,Weather View 32 v70,2013-08-06 01:25:00,
2013-08-05 18:30:00,71.5,51.3,29.94,NW,319,4.0,14.0,49,0.00,,,0.00,0304,Weather View 32 v70,2013-08-06 01:30:00,
2013-08-05 18:35:00,71.0,50.8,29.94,SSW,207,4.0,14.0,49,0.00,,,0.00,0291,Weather View 32 v70,2013-08-06 01:35:00,
2013-08-05 18:45:00,71.2,51.6,29.94,North,4,3.0,14.0,50,0.00,,,0.00,0267,Weather View 32 v70,2013-08-06 01:45:00,
2013-08-05 18:50:00,71.4,51.7,29.94,SSW,207,2.0,14.0,50,0.00,,,0.00,0255,Weather View 32 v70,2013-08-06 01:50:00,
2013-08-05 18:55:00,71.1,50.9,29.93,SSW,207,6.0,14.0,49,0.00,,,0.00,0241,Weather View 32 v70,2013-08-06 01:55:00,
2013-08-05 19:00:00,70.7,51.1,29.93,WSW,252,9.0,14.0,50,0.00,,,0.00,0227,Weather View 32 v70,2013-08-06 02:00:00,
2013-08-05 19:05:00,70.2,50.6,29.93,SSW,207,7.0,14.0,50,0.00,,,0.00,0214,Weather View 32 v70,2013-08-06 02:05:00,
2013-08-05 19:15:00,68.5,51.2,29.93,NNW,342,4.0,14.0,54,0.00,,,0.00,0026,Weather View 32 v70,2013-08-06 02:15:00,
2013-08-05 19:20:00,68.8,51.4,29.93,West,274,3.0,13.0,54,0.00,,,0.00,0027,Weather View 32 v70,2013-08-06 02:20:00,
2013-08-05 19:25:00,66.9,50.2,29.93,NW,319,8.0,13.0,55,0.00,,,0.00,0018,Weather View 32 v70,2013-08-06 02:25:00,
2013-08-05 19:30:00,66.5,50.8,29.93,NNE,27,3.0,13.0,57,0.00,,,0.00,0017,Weather View 32 v70,2013-08-06 02:30:00,
2013-08-05 19:35:00,66.0,50.8,29.94,NNW,342,4.0,13.0,58,0.00,,,0.00,0016,Weather View 32 v70,2013-08-06 02:35:00,
2013-08-05 19:40:00,65.9,51.1,29.94,NNW,342,5.0,13.0,59,0.00,,,0.00,0015,Weather View 32 v70,2013-08-06 02:40:00,
2013-08-05 19:50:00,65.9,51.1,29.94,WNW,297,4.0,13.0,59,0.00,,,0.00,0012,Weather View 32 v70,2013-08-06 02:50:00,
2013-08-05 19:55:00,65.5,50.8,29.94,WNW,297,4.0,13.0,59,0.00,,,0.00,0011,Weather View 32 v70,2013-08-06 02:55:00,
2013-08-05 20:00:00,63.8,50.1,29.94,WNW,297,8.0,13.0,61,0.00,,,0.00,0009,Weather View 32 v70,2013-08-06 03:00:00,
2013-08-05 20:05:00,62.8,50.4,29.94,WNW,297,8.0,13.0,64,0.00,,,0.00,0008,Weather View 32 v70,2013-08-06 03:05:00,
2013-08-05 20:10:00,62.2,50.3,29.94,WNW,297,2.0,12.0,65,0.00,,,0.00,0006,Weather View 32 v70,2013-08-06 03:10:00,
2013-08-05 20:25:00,60.9,50.2,29.95,NW,319,6.0,12.0,68,0.00,,,0.00,0002,Weather View 32 v70,2013-08-06 03:25:00,
2013-08-05 20:30:00,60.4,50.5,29.95,WNW,297,5.0,12.0,70,0.00,,,0.00,0002,Weather View 32 v70,2013-08-06 03:30:00,
2013-08-05 20:35:00,60.4,50.5,29.95,West,274,0.0,12.0,70,0.00,,,0.00,0002,Weather View 32 v70,2013-08-06 03:35:00,
2013-08-05 20:40:00,60.3,50.5,29.95,SSW,207,0.0,12.0,70,0.00,,,0.00,0002,Weather View 32 v70,2013-08-06 03:40:00,
2013-08-05 20:50:00,60.0,50.2,29.96,ESE,117,0.0,12.0,70,0.00,,,0.00,0001,Weather View 32 v70,2013-08-06 03:50:00,
2013-08-05 20:55:00,59.6,49.8,29.96,South,184,0.0,12.0,70,0.00,,,0.00,0001,Weather View 32 v70,2013-08-06 03:55:00,
2013-08-05 21:00:00,59.5,50.1,29.96,SSE,162,0.0,12.0,71,0.00,,,0.00,0001,Weather View 32 v70,2013-08-06 04:00:00,
2013-08-05 21:05:00,59.7,50.6,29.96,SE,139,0.0,12.0,72,0.00,,,0.00,0001,Weather View 32 v70,2013-08-06 04:05:00,
2013-08-05 21:10:00,59.7,50.6,29.97,ESE,117,0.0,9.0,72,0.00,,,0.00,0002,Weather View 32 v70,2013-08-06 04:10:00,
2013-08-05 21:15:00,59.5,50.4,29.97,ESE,117,0.0,9.0,72,0.00,,,0.00,0002,Weather View 32 v70,2013-08-06 04:15:00,
2013-08-05 21:20:00,59.3,50.3,29.97,SE,139,0.0,8.0,72,0.00,,,0.00,0002,Weather View 32 v70,2013-08-06 04:20:00,
2013-08-05 21:25:00,59.1,50.4,29.98,SE,139,0.0,7.0,73,0.00,,,0.00,0001,Weather View 32 v70,2013-08-06 04:25:00,
2013-08-05 21:27:00,59.1,50.4,29.98,SE,139,0.0,7.0,73,0.00,,,0.00,0001,Weather View 32 v70,2013-08-06 04:27:00,
2013-08-05 21:35:00,58.8,50.5,29.98,ENE,72,0.0,4.0,74,0.00,,,0.00,0001,Weather View 32 v70,2013-08-06 04:35:00,
2013-08-05 21:40:00,58.7,50.4,29.98,SE,139,0.0,3.0,74,0.00,,,0.00,0002,Weather View 32 v70,2013-08-06 04:40:00,
2013-08-05 21:45:00,58.6,50.7,29.98,WNW,297,0.0,3.0,75,0.00,,,0.00,0001,Weather View 32 v70,2013-08-06 04:45:00,
2013-08-05 21:55:00,58.3,50.4,29.98,SSW,207,1.0,3.0,75,0.00,,,0.00,0001,Weather View 32 v70,2013-08-06 04:55:00,
2013-08-05 22:00:00,58.1,50.2,29.98,SW,229,0.0,3.0,75,0.00,,,0.00,0002,Weather View 32 v70,2013-08-06 05:00:00,
2013-08-05 22:05:00,57.8,50.3,29.98,SW,229,1.0,3.0,76,0.00,,,0.00,0001,Weather View 32 v70,2013-08-06 05:05:00,
2013-08-05 22:10:00,57.6,50.8,29.98,SSW,207,3.0,4.0,78,0.00,,,0.00,0002,Weather View 32 v70,2013-08-06 05:10:00,
2013-08-05 22:15:00,57.5,50.7,29.98,West,274,0.0,4.0,78,0.00,,,0.00,0001,Weather View 32 v70,2013-08-06 05:15:00,
2013-08-05 22:20:00,57.4,50.6,29.99,West,274,0.0,4.0,78,0.00,,,0.00,0002,Weather View 32 v70,2013-08-06 05:20:00,
2013-08-05 22:28:00,57.3,50.5,29.99,WSW,252,0.0,4.0,78,0.00,,,0.00,0001,Weather View 32 v70,2013-08-06 05:28:00,
2013-08-05 22:35:00,57.2,51.1,29.99,ESE,117,0.0,6.0,80,0.00,,,0.00,0001,Weather View 32 v70,2013-08-06 05:35:00,
2013-08-05 22:40:00,57.0,50.5,29.99,SSE,162,0.0,6.0,79,0.00,,,0.00,0001,Weather View 32 v70,2013-08-06 05:40:00,
2013-08-05 22:45:00,56.7,50.6,29.99,South,184,0.0,6.0,80,0.00,,,0.00,0001,Weather View 32 v70,2013-08-06 05:45:00,
2013-08-05 22:50:00,56.7,50.9,29.99,SE,139,0.0,6.0,81,0.00,,,0.00,0001,Weather View 32 v70,2013-08-06 05:50:00,
2013-08-05 23:00:00,56.5,50.7,29.99,South,184,0.0,6.0,81,0.00,,,0.00,0001,Weather View 32 v70,2013-08-06 06:00:00,
2013-08-05 23:05:00,56.3,50.5,29.99,NE,49,0.0,6.0,81,0.00,,,0.00,0001,Weather View 32 v70,2013-08-06 06:05:00,
2013-08-05 23:10:00,56.1,50.7,29.99,ESE,117,0.0,6.0,82,0.00,,,0.00,0001,Weather View 32 v70,2013-08-06 06:10:00,
2013-08-05 23:15:00,55.9,50.8,29.99,WNW,297,1.0,6.0,83,0.00,,,0.00,0001,Weather View 32 v70,2013-08-06 06:15:00,
2013-08-05 23:20:00,55.3,50.9,29.99,NNW,342,3.0,6.0,85,0.00,,,0.00,0001,Weather View 32 v70,2013-08-06 06:20:00,
2013-08-05 23:25:00,55.2,51.1,29.99,NNW,342,0.0,6.0,86,0.00,,,0.00,0001,Weather View 32 v70,2013-08-06 06:25:00,
2013-08-05 23:35:00,55.0,51.2,29.99,South,184,0.0,6.0,87,0.00,,,0.00,0001,Weather View 32 v70,2013-08-06 06:35:00,
2013-08-05 23:45:00,55.0,51.5,29.99,NW,319,3.0,6.0,88,0.00,,,0.00,0001,Weather View 32 v70,2013-08-06 06:45:00,
2013-08-05 23:50:00,55.1,51.6,29.99,NW,319,0.0,6.0,88,0.00,,,0.00,0001,Weather View 32 v70,2013-08-06 06:50:00,
2013-08-05 23:55:00,55.4,51.9,29.99,West,274,1.0,6.0,88,0.00,,,0.00,0001,Weather View 32 v70,2013-08-06 06:55:00,